sensor_id;sensor_type;location;lat;lon;timestamp;temperature;humidity
9373;DHT22;10838;52.350;9.790;2023-05-07T00:02:05;11.90;97.00
9373;DHT22;10838;52.350;9.790;2023-05-07T00:04:32;11.90;97.00
9373;DHT22;10838;52.350;9.790;2023-05-07T00:07:03;11.90;97.00
9373;DHT22;10838;52.350;9.790;2023-05-07T00:09:31;11.90;97.00
9373;DHT22;10838;52.350;9.790;2023-05-07T00:11:57;11.80;97.00
9373;DHT22;10838;52.350;9.790;2023-05-07T00:14:24;11.90;97.00
9373;DHT22;10838;52.350;9.790;2023-05-07T00:16:51;11.80;97.00
9373;DHT22;10838;52.350;9.790;2023-05-07T00:19:17;11.90;97.00
9373;DHT22;10838;52.350;9.790;2023-05-07T00:21:44;11.90;97.10
9373;DHT22;10838;52.350;9.790;2023-05-07T00:24:10;11.80;97.00
9373;DHT22;10838;52.350;9.790;2023-05-07T00:26:38;11.80;97.00
9373;DHT22;10838;52.350;9.790;2023-05-07T00:29:05;11.80;97.10
9373;DHT22;10838;52.350;9.790;2023-05-07T00:31:31;11.80;97.10
9373;DHT22;10838;52.350;9.790;2023-05-07T00:33:58;11.70;97.10
9373;DHT22;10838;52.350;9.790;2023-05-07T00:36:24;11.70;97.10
9373;DHT22;10838;52.350;9.790;2023-05-07T00:38:51;11.70;97.10
9373;DHT22;10838;52.350;9.790;2023-05-07T00:41:18;11.70;97.20
9373;DHT22;10838;52.350;9.790;2023-05-07T00:43:46;11.70;97.20
9373;DHT22;10838;52.350;9.790;2023-05-07T00:46:13;11.60;97.20
9373;DHT22;10838;52.350;9.790;2023-05-07T00:48:41;11.60;97.20
9373;DHT22;10838;52.350;9.790;2023-05-07T00:51:07;11.60;97.20
9373;DHT22;10838;52.350;9.790;2023-05-07T00:53:34;11.60;97.20
9373;DHT22;10838;52.350;9.790;2023-05-07T00:56:01;11.60;97.20
9373;DHT22;10838;52.350;9.790;2023-05-07T00:58:28;11.60;97.20
9373;DHT22;10838;52.350;9.790;2023-05-07T01:00:57;11.60;97.30
9373;DHT22;10838;52.350;9.790;2023-05-07T01:03:23;11.60;97.30
9373;DHT22;10838;52.350;9.790;2023-05-07T01:05:52;11.60;97.30
9373;DHT22;10838;52.350;9.790;2023-05-07T01:08:20;11.60;97.30
9373;DHT22;10838;52.350;9.790;2023-05-07T01:10:50;11.60;97.30
9373;DHT22;10838;52.350;9.790;2023-05-07T01:13:18;11.60;97.30
9373;DHT22;10838;52.350;9.790;2023-05-07T01:15:45;11.60;97.30
9373;DHT22;10838;52.350;9.790;2023-05-07T01:18:13;11.60;97.30
9373;DHT22;10838;52.350;9.790;2023-05-07T01:20:42;11.50;97.30
9373;DHT22;10838;52.350;9.790;2023-05-07T01:23:11;11.50;97.30
9373;DHT22;10838;52.350;9.790;2023-05-07T01:25:37;11.50;97.30
9373;DHT22;10838;52.350;9.790;2023-05-07T01:28:04;11.50;97.30
9373;DHT22;10838;52.350;9.790;2023-05-07T01:30:31;11.40;97.30
9373;DHT22;10838;52.350;9.790;2023-05-07T01:33:03;11.40;97.40
9373;DHT22;10838;52.350;9.790;2023-05-07T01:35:35;11.40;97.40
9373;DHT22;10838;52.350;9.790;2023-05-07T01:38:04;11.40;97.40
9373;DHT22;10838;52.350;9.790;2023-05-07T01:40:33;11.40;97.40
9373;DHT22;10838;52.350;9.790;2023-05-07T01:43:01;11.40;97.40
9373;DHT22;10838;52.350;9.790;2023-05-07T01:45:28;11.40;97.40
9373;DHT22;10838;52.350;9.790;2023-05-07T01:47:56;11.40;97.40
9373;DHT22;10838;52.350;9.790;2023-05-07T01:50:25;11.40;97.40
9373;DHT22;10838;52.350;9.790;2023-05-07T01:52:52;11.30;97.40
9373;DHT22;10838;52.350;9.790;2023-05-07T01:55:18;11.30;97.40
9373;DHT22;10838;52.350;9.790;2023-05-07T01:57:46;11.30;97.40
9373;DHT22;10838;52.350;9.790;2023-05-07T02:00:13;11.30;97.40
9373;DHT22;10838;52.350;9.790;2023-05-07T02:02:40;11.30;97.40
9373;DHT22;10838;52.350;9.790;2023-05-07T02:05:07;11.30;97.40
9373;DHT22;10838;52.350;9.790;2023-05-07T02:07:34;11.30;97.40
9373;DHT22;10838;52.350;9.790;2023-05-07T02:10:00;11.30;97.40
9373;DHT22;10838;52.350;9.790;2023-05-07T02:12:28;11.30;97.40
9373;DHT22;10838;52.350;9.790;2023-05-07T02:14:56;11.30;97.40
9373;DHT22;10838;52.350;9.790;2023-05-07T02:17:22;11.30;97.40
9373;DHT22;10838;52.350;9.790;2023-05-07T02:19:49;11.30;97.40
9373;DHT22;10838;52.350;9.790;2023-05-07T02:22:15;11.20;97.30
9373;DHT22;10838;52.350;9.790;2023-05-07T02:24:42;11.30;97.30
9373;DHT22;10838;52.350;9.790;2023-05-07T02:27:09;11.30;97.30
9373;DHT22;10838;52.350;9.790;2023-05-07T02:29:36;11.30;97.30
9373;DHT22;10838;52.350;9.790;2023-05-07T02:32:04;11.30;97.30
9373;DHT22;10838;52.350;9.790;2023-05-07T02:34:30;11.30;97.30
9373;DHT22;10838;52.350;9.790;2023-05-07T02:36:57;11.30;97.30
9373;DHT22;10838;52.350;9.790;2023-05-07T02:39:24;11.30;97.30
9373;DHT22;10838;52.350;9.790;2023-05-07T02:41:50;11.30;97.20
9373;DHT22;10838;52.350;9.790;2023-05-07T02:44:17;11.30;97.20
9373;DHT22;10838;52.350;9.790;2023-05-07T02:46:43;11.30;97.30
9373;DHT22;10838;52.350;9.790;2023-05-07T02:49:11;11.30;97.20
9373;DHT22;10838;52.350;9.790;2023-05-07T02:51:38;11.30;97.20
9373;DHT22;10838;52.350;9.790;2023-05-07T02:54:04;11.30;97.20
9373;DHT22;10838;52.350;9.790;2023-05-07T02:56:31;11.30;97.20
9373;DHT22;10838;52.350;9.790;2023-05-07T02:58:57;11.20;97.20
9373;DHT22;10838;52.350;9.790;2023-05-07T03:01:24;11.20;97.20
9373;DHT22;10838;52.350;9.790;2023-05-07T03:03:51;11.20;97.20
9373;DHT22;10838;52.350;9.790;2023-05-07T03:06:18;11.20;97.20
9373;DHT22;10838;52.350;9.790;2023-05-07T03:08:45;11.20;97.20
9373;DHT22;10838;52.350;9.790;2023-05-07T03:11:11;11.20;97.20
9373;DHT22;10838;52.350;9.790;2023-05-07T03:13:38;11.20;97.20
9373;DHT22;10838;52.350;9.790;2023-05-07T03:16:05;11.20;97.20
9373;DHT22;10838;52.350;9.790;2023-05-07T03:18:32;11.20;97.20
9373;DHT22;10838;52.350;9.790;2023-05-07T03:20:58;11.20;97.20
9373;DHT22;10838;52.350;9.790;2023-05-07T03:23:26;11.20;97.20
9373;DHT22;10838;52.350;9.790;2023-05-07T03:25:53;11.10;97.20
9373;DHT22;10838;52.350;9.790;2023-05-07T03:28:19;11.10;97.30
9373;DHT22;10838;52.350;9.790;2023-05-07T03:30:46;11.10;97.30
9373;DHT22;10838;52.350;9.790;2023-05-07T03:33:12;11.10;97.30
9373;DHT22;10838;52.350;9.790;2023-05-07T03:35:39;11.10;97.30
9373;DHT22;10838;52.350;9.790;2023-05-07T03:38:05;11.10;97.30
9373;DHT22;10838;52.350;9.790;2023-05-07T03:40:33;11.10;97.30
9373;DHT22;10838;52.350;9.790;2023-05-07T03:43:00;11.00;97.30
9373;DHT22;10838;52.350;9.790;2023-05-07T03:45:27;11.10;97.30
9373;DHT22;10838;52.350;9.790;2023-05-07T03:47:53;11.00;97.30
9373;DHT22;10838;52.350;9.790;2023-05-07T03:50:20;11.10;97.30
9373;DHT22;10838;52.350;9.790;2023-05-07T03:52:46;11.10;97.30
9373;DHT22;10838;52.350;9.790;2023-05-07T03:55:13;11.00;97.30
9373;DHT22;10838;52.350;9.790;2023-05-07T03:57:41;11.00;97.30
9373;DHT22;10838;52.350;9.790;2023-05-07T04:00:08;11.00;97.40
9373;DHT22;10838;52.350;9.790;2023-05-07T04:02:35;11.00;97.40
9373;DHT22;10838;52.350;9.790;2023-05-07T04:05:01;10.90;97.40
9373;DHT22;10838;52.350;9.790;2023-05-07T04:07:28;11.00;97.40
9373;DHT22;10838;52.350;9.790;2023-05-07T04:09:54;10.90;97.40
9373;DHT22;10838;52.350;9.790;2023-05-07T04:12:21;10.90;97.40
9373;DHT22;10838;52.350;9.790;2023-05-07T04:14:49;10.90;97.40
9373;DHT22;10838;52.350;9.790;2023-05-07T04:17:15;10.90;97.40
9373;DHT22;10838;52.350;9.790;2023-05-07T04:19:42;10.90;97.40
9373;DHT22;10838;52.350;9.790;2023-05-07T04:22:10;10.90;97.40
9373;DHT22;10838;52.350;9.790;2023-05-07T04:24:37;10.90;97.40
9373;DHT22;10838;52.350;9.790;2023-05-07T04:27:03;10.90;97.40
9373;DHT22;10838;52.350;9.790;2023-05-07T04:29:31;10.90;97.40
9373;DHT22;10838;52.350;9.790;2023-05-07T04:31:59;10.90;97.40
9373;DHT22;10838;52.350;9.790;2023-05-07T04:34:26;10.90;97.40
9373;DHT22;10838;52.350;9.790;2023-05-07T04:36:52;10.90;97.40
9373;DHT22;10838;52.350;9.790;2023-05-07T04:39:19;10.90;97.40
9373;DHT22;10838;52.350;9.790;2023-05-07T04:41:45;10.90;97.40
9373;DHT22;10838;52.350;9.790;2023-05-07T04:44:12;10.80;97.40
9373;DHT22;10838;52.350;9.790;2023-05-07T04:46:38;10.90;97.40
9373;DHT22;10838;52.350;9.790;2023-05-07T04:49:06;10.90;97.40
9373;DHT22;10838;52.350;9.790;2023-05-07T04:51:33;10.90;97.40
9373;DHT22;10838;52.350;9.790;2023-05-07T04:53:59;10.80;97.40
9373;DHT22;10838;52.350;9.790;2023-05-07T04:56:27;10.90;97.40
9373;DHT22;10838;52.350;9.790;2023-05-07T04:58:55;10.90;97.40
9373;DHT22;10838;52.350;9.790;2023-05-07T05:01:21;10.90;97.40
9373;DHT22;10838;52.350;9.790;2023-05-07T05:03:48;10.90;97.40
9373;DHT22;10838;52.350;9.790;2023-05-07T05:06:16;10.90;97.40
9373;DHT22;10838;52.350;9.790;2023-05-07T05:08:42;10.90;97.40
9373;DHT22;10838;52.350;9.790;2023-05-07T05:11:09;10.90;97.40
9373;DHT22;10838;52.350;9.790;2023-05-07T05:13:35;10.90;97.40
9373;DHT22;10838;52.350;9.790;2023-05-07T05:16:02;10.90;97.40
9373;DHT22;10838;52.350;9.790;2023-05-07T05:18:29;10.90;97.40
9373;DHT22;10838;52.350;9.790;2023-05-07T05:20:55;10.90;97.30
9373;DHT22;10838;52.350;9.790;2023-05-07T05:23:23;10.90;97.40
9373;DHT22;10838;52.350;9.790;2023-05-07T05:25:50;10.90;97.30
9373;DHT22;10838;52.350;9.790;2023-05-07T05:28:16;10.90;97.30
9373;DHT22;10838;52.350;9.790;2023-05-07T05:30:43;10.80;97.30
9373;DHT22;10838;52.350;9.790;2023-05-07T05:33:09;10.90;97.30
9373;DHT22;10838;52.350;9.790;2023-05-07T05:35:36;10.80;97.20
9373;DHT22;10838;52.350;9.790;2023-05-07T05:38:02;10.80;97.20
9373;DHT22;10838;52.350;9.790;2023-05-07T05:40:30;10.80;97.20
9373;DHT22;10838;52.350;9.790;2023-05-07T05:42:57;10.80;97.20
9373;DHT22;10838;52.350;9.790;2023-05-07T05:45:24;10.90;97.20
9373;DHT22;10838;52.350;9.790;2023-05-07T05:47:50;10.80;97.20
9373;DHT22;10838;52.350;9.790;2023-05-07T05:50:17;10.90;97.20
9373;DHT22;10838;52.350;9.790;2023-05-07T05:52:43;10.90;97.20
9373;DHT22;10838;52.350;9.790;2023-05-07T05:55:10;10.90;97.20
9373;DHT22;10838;52.350;9.790;2023-05-07T05:57:38;10.90;97.20
9373;DHT22;10838;52.350;9.790;2023-05-07T06:00:06;10.90;97.10
9373;DHT22;10838;52.350;9.790;2023-05-07T06:02:33;11.00;97.10
9373;DHT22;10838;52.350;9.790;2023-05-07T06:05:00;10.90;97.10
9373;DHT22;10838;52.350;9.790;2023-05-07T06:07:26;11.00;97.10
9373;DHT22;10838;52.350;9.790;2023-05-07T06:09:53;11.00;97.10
9373;DHT22;10838;52.350;9.790;2023-05-07T06:12:20;11.00;97.10
9373;DHT22;10838;52.350;9.790;2023-05-07T06:14:48;11.00;97.10
9373;DHT22;10838;52.350;9.790;2023-05-07T06:17:15;11.00;97.10
9373;DHT22;10838;52.350;9.790;2023-05-07T06:19:41;11.10;97.00
9373;DHT22;10838;52.350;9.790;2023-05-07T06:22:08;11.00;97.00
9373;DHT22;10838;52.350;9.790;2023-05-07T06:24:35;11.00;97.10
9373;DHT22;10838;52.350;9.790;2023-05-07T06:27:01;11.00;97.10
9373;DHT22;10838;52.350;9.790;2023-05-07T06:29:28;11.10;97.10
9373;DHT22;10838;52.350;9.790;2023-05-07T06:32:06;11.10;97.10
9373;DHT22;10838;52.350;9.790;2023-05-07T06:34:32;11.10;97.00
9373;DHT22;10838;52.350;9.790;2023-05-07T06:36:59;11.10;97.00
9373;DHT22;10838;52.350;9.790;2023-05-07T06:39:25;11.20;97.00
9373;DHT22;10838;52.350;9.790;2023-05-07T06:41:52;11.20;97.00
9373;DHT22;10838;52.350;9.790;2023-05-07T06:44:18;11.20;96.90
9373;DHT22;10838;52.350;9.790;2023-05-07T06:46:45;11.30;97.00
9373;DHT22;10838;52.350;9.790;2023-05-07T06:49:13;11.30;96.90
9373;DHT22;10838;52.350;9.790;2023-05-07T06:51:40;11.30;96.90
9373;DHT22;10838;52.350;9.790;2023-05-07T06:54:07;11.30;96.90
9373;DHT22;10838;52.350;9.790;2023-05-07T06:56:34;11.40;96.90
9373;DHT22;10838;52.350;9.790;2023-05-07T06:59:01;11.40;96.90
9373;DHT22;10838;52.350;9.790;2023-05-07T07:01:28;11.40;96.90
9373;DHT22;10838;52.350;9.790;2023-05-07T07:03:54;11.50;96.90
9373;DHT22;10838;52.350;9.790;2023-05-07T07:06:22;11.50;96.90
9373;DHT22;10838;52.350;9.790;2023-05-07T07:08:49;11.50;96.80
9373;DHT22;10838;52.350;9.790;2023-05-07T07:11:15;11.60;96.90
9373;DHT22;10838;52.350;9.790;2023-05-07T07:13:42;11.60;96.80
9373;DHT22;10838;52.350;9.790;2023-05-07T07:16:08;11.50;96.80
9373;DHT22;10838;52.350;9.790;2023-05-07T07:18:35;11.60;96.80
9373;DHT22;10838;52.350;9.790;2023-05-07T07:21:02;11.60;96.80
9373;DHT22;10838;52.350;9.790;2023-05-07T07:23:30;11.60;96.80
9373;DHT22;10838;52.350;9.790;2023-05-07T07:25:57;11.70;96.80
9373;DHT22;10838;52.350;9.790;2023-05-07T07:28:23;11.70;96.80
9373;DHT22;10838;52.350;9.790;2023-05-07T07:30:50;11.80;96.80
9373;DHT22;10838;52.350;9.790;2023-05-07T07:33:16;11.80;96.80
9373;DHT22;10838;52.350;9.790;2023-05-07T07:35:43;11.90;96.70
9373;DHT22;10838;52.350;9.790;2023-05-07T07:38:09;12.00;96.70
9373;DHT22;10838;52.350;9.790;2023-05-07T07:40:37;12.00;96.60
9373;DHT22;10838;52.350;9.790;2023-05-07T07:43:04;12.00;96.60
9373;DHT22;10838;52.350;9.790;2023-05-07T07:45:31;12.00;96.60
9373;DHT22;10838;52.350;9.790;2023-05-07T07:47:58;12.00;96.60
9373;DHT22;10838;52.350;9.790;2023-05-07T07:50:24;12.10;96.70
9373;DHT22;10838;52.350;9.790;2023-05-07T07:52:51;12.20;96.70
9373;DHT22;10838;52.350;9.790;2023-05-07T07:55:20;12.20;96.60
9373;DHT22;10838;52.350;9.790;2023-05-07T07:57:49;12.30;96.60
9373;DHT22;10838;52.350;9.790;2023-05-07T08:00:16;12.30;96.60
9373;DHT22;10838;52.350;9.790;2023-05-07T08:02:43;12.40;96.50
9373;DHT22;10838;52.350;9.790;2023-05-07T08:05:09;12.50;96.60
9373;DHT22;10838;52.350;9.790;2023-05-07T08:07:36;12.50;96.50
9373;DHT22;10838;52.350;9.790;2023-05-07T08:10:03;12.50;96.50
9373;DHT22;10838;52.350;9.790;2023-05-07T08:12:30;12.60;96.60
9373;DHT22;10838;52.350;9.790;2023-05-07T08:14:58;12.60;96.50
9373;DHT22;10838;52.350;9.790;2023-05-07T08:17:24;12.60;96.50
9373;DHT22;10838;52.350;9.790;2023-05-07T08:19:51;12.60;96.50
9373;DHT22;10838;52.350;9.790;2023-05-07T08:22:17;12.70;96.50
9373;DHT22;10838;52.350;9.790;2023-05-07T08:24:44;12.80;96.50
9373;DHT22;10838;52.350;9.790;2023-05-07T08:27:11;12.80;96.50
9373;DHT22;10838;52.350;9.790;2023-05-07T08:29:37;12.90;96.50
9373;DHT22;10838;52.350;9.790;2023-05-07T08:32:05;13.00;96.40
9373;DHT22;10838;52.350;9.790;2023-05-07T08:34:32;13.00;96.50
9373;DHT22;10838;52.350;9.790;2023-05-07T08:36:58;13.00;96.40
9373;DHT22;10838;52.350;9.790;2023-05-07T08:39:25;13.10;96.40
9373;DHT22;10838;52.350;9.790;2023-05-07T08:41:55;13.10;96.40
9373;DHT22;10838;52.350;9.790;2023-05-07T08:44:22;13.10;96.30
9373;DHT22;10838;52.350;9.790;2023-05-07T08:46:51;13.10;96.40
9373;DHT22;10838;52.350;9.790;2023-05-07T08:49:20;13.10;96.30
9373;DHT22;10838;52.350;9.790;2023-05-07T08:51:47;13.10;96.30
9373;DHT22;10838;52.350;9.790;2023-05-07T08:54:16;13.10;96.30
9373;DHT22;10838;52.350;9.790;2023-05-07T08:56:43;13.10;96.30
9373;DHT22;10838;52.350;9.790;2023-05-07T08:59:10;13.10;96.30
9373;DHT22;10838;52.350;9.790;2023-05-07T09:01:36;13.20;96.40
9373;DHT22;10838;52.350;9.790;2023-05-07T09:04:04;13.20;96.30
9373;DHT22;10838;52.350;9.790;2023-05-07T09:06:32;13.20;96.30
9373;DHT22;10838;52.350;9.790;2023-05-07T09:08:58;13.30;96.40
9373;DHT22;10838;52.350;9.790;2023-05-07T09:11:27;13.30;96.30
9373;DHT22;10838;52.350;9.790;2023-05-07T09:13:54;13.30;96.30
9373;DHT22;10838;52.350;9.790;2023-05-07T09:16:22;13.30;96.20
9373;DHT22;10838;52.350;9.790;2023-05-07T09:18:51;13.40;96.30
9373;DHT22;10838;52.350;9.790;2023-05-07T09:21:19;13.40;96.30
9373;DHT22;10838;52.350;9.790;2023-05-07T09:23:50;13.50;96.30
9373;DHT22;10838;52.350;9.790;2023-05-07T09:26:18;13.50;96.30
9373;DHT22;10838;52.350;9.790;2023-05-07T09:28:45;13.50;96.30
9373;DHT22;10838;52.350;9.790;2023-05-07T09:31:12;13.50;96.20
9373;DHT22;10838;52.350;9.790;2023-05-07T09:33:39;13.60;96.30
9373;DHT22;10838;52.350;9.790;2023-05-07T09:36:08;13.60;96.20
9373;DHT22;10838;52.350;9.790;2023-05-07T09:38:36;13.60;96.20
9373;DHT22;10838;52.350;9.790;2023-05-07T09:41:05;13.60;96.20
9373;DHT22;10838;52.350;9.790;2023-05-07T09:43:32;13.60;96.20
9373;DHT22;10838;52.350;9.790;2023-05-07T09:46:03;13.60;96.20
9373;DHT22;10838;52.350;9.790;2023-05-07T09:48:30;13.70;96.20
9373;DHT22;10838;52.350;9.790;2023-05-07T09:51:02;13.80;96.20
9373;DHT22;10838;52.350;9.790;2023-05-07T09:53:29;13.80;96.20
9373;DHT22;10838;52.350;9.790;2023-05-07T09:55:57;13.80;96.10
9373;DHT22;10838;52.350;9.790;2023-05-07T09:58:26;13.90;96.10
9373;DHT22;10838;52.350;9.790;2023-05-07T10:00:53;13.80;96.10
9373;DHT22;10838;52.350;9.790;2023-05-07T10:03:20;13.80;96.10
9373;DHT22;10838;52.350;9.790;2023-05-07T10:05:49;13.80;96.10
9373;DHT22;10838;52.350;9.790;2023-05-07T10:08:16;13.80;96.10
9373;DHT22;10838;52.350;9.790;2023-05-07T10:10:45;13.80;96.10
9373;DHT22;10838;52.350;9.790;2023-05-07T10:13:12;13.80;96.10
9373;DHT22;10838;52.350;9.790;2023-05-07T10:15:41;13.90;96.00
9373;DHT22;10838;52.350;9.790;2023-05-07T10:18:08;13.90;96.10
9373;DHT22;10838;52.350;9.790;2023-05-07T10:20:36;13.90;96.10
9373;DHT22;10838;52.350;9.790;2023-05-07T10:23:04;14.00;96.10
9373;DHT22;10838;52.350;9.790;2023-05-07T10:25:32;14.00;96.10
9373;DHT22;10838;52.350;9.790;2023-05-07T10:28:02;14.00;96.00
9373;DHT22;10838;52.350;9.790;2023-05-07T10:30:38;14.10;96.00
9373;DHT22;10838;52.350;9.790;2023-05-07T10:33:09;14.10;96.00
9373;DHT22;10838;52.350;9.790;2023-05-07T10:35:38;14.10;96.00
9373;DHT22;10838;52.350;9.790;2023-05-07T10:38:08;14.10;96.00
9373;DHT22;10838;52.350;9.790;2023-05-07T10:40:35;14.20;96.00
9373;DHT22;10838;52.350;9.790;2023-05-07T10:43:03;14.20;96.00
9373;DHT22;10838;52.350;9.790;2023-05-07T10:45:30;14.30;96.00
9373;DHT22;10838;52.350;9.790;2023-05-07T10:48:09;14.30;96.00
9373;DHT22;10838;52.350;9.790;2023-05-07T10:50:37;14.30;95.90
9373;DHT22;10838;52.350;9.790;2023-05-07T10:53:24;14.30;95.90
9373;DHT22;10838;52.350;9.790;2023-05-07T10:59:30;14.40;95.90
9373;DHT22;10838;52.350;9.790;2023-05-07T11:01:59;14.50;95.90
9373;DHT22;10838;52.350;9.790;2023-05-07T11:04:29;14.40;95.80
9373;DHT22;10838;52.350;9.790;2023-05-07T11:07:28;14.40;95.80
9373;DHT22;10838;52.350;9.790;2023-05-07T11:09:56;14.40;95.80
9373;DHT22;10838;52.350;9.790;2023-05-07T11:12:48;14.40;95.90
9373;DHT22;10838;52.350;9.790;2023-05-07T11:15:34;14.40;95.80
9373;DHT22;10838;52.350;9.790;2023-05-07T11:18:00;14.40;95.90
9373;DHT22;10838;52.350;9.790;2023-05-07T11:20:52;14.50;95.90
9373;DHT22;10838;52.350;9.790;2023-05-07T11:23:56;14.50;95.90
9373;DHT22;10838;52.350;9.790;2023-05-07T11:26:24;14.50;95.80
9373;DHT22;10838;52.350;9.790;2023-05-07T11:28:51;14.50;95.80
9373;DHT22;10838;52.350;9.790;2023-05-07T11:31:22;14.60;95.80
9373;DHT22;10838;52.350;9.790;2023-05-07T11:33:49;14.60;95.70
9373;DHT22;10838;52.350;9.790;2023-05-07T11:36:18;14.60;95.70
9373;DHT22;10838;52.350;9.790;2023-05-07T11:38:45;14.70;95.60
9373;DHT22;10838;52.350;9.790;2023-05-07T11:41:12;14.70;95.60
9373;DHT22;10838;52.350;9.790;2023-05-07T11:43:53;14.70;95.60
9373;DHT22;10838;52.350;9.790;2023-05-07T11:46:21;14.70;95.60
9373;DHT22;10838;52.350;9.790;2023-05-07T11:48:47;14.80;95.60
9373;DHT22;10838;52.350;9.790;2023-05-07T11:51:20;14.80;95.80
9373;DHT22;10838;52.350;9.790;2023-05-07T11:53:47;14.90;95.70
9373;DHT22;10838;52.350;9.790;2023-05-07T11:56:15;14.90;95.60
9373;DHT22;10838;52.350;9.790;2023-05-07T11:58:43;15.00;95.60
9373;DHT22;10838;52.350;9.790;2023-05-07T12:01:11;14.90;95.60
9373;DHT22;10838;52.350;9.790;2023-05-07T12:03:40;14.90;95.50
9373;DHT22;10838;52.350;9.790;2023-05-07T12:06:07;14.90;95.50
9373;DHT22;10838;52.350;9.790;2023-05-07T12:08:38;15.00;95.60
9373;DHT22;10838;52.350;9.790;2023-05-07T12:11:07;15.00;95.50
9373;DHT22;10838;52.350;9.790;2023-05-07T12:13:35;15.00;95.50
9373;DHT22;10838;52.350;9.790;2023-05-07T12:16:02;15.00;95.50
9373;DHT22;10838;52.350;9.790;2023-05-07T12:18:29;15.00;95.50
9373;DHT22;10838;52.350;9.790;2023-05-07T12:20:56;15.00;95.50
9373;DHT22;10838;52.350;9.790;2023-05-07T12:23:23;15.00;95.50
9373;DHT22;10838;52.350;9.790;2023-05-07T12:25:51;15.10;95.50
9373;DHT22;10838;52.350;9.790;2023-05-07T12:28:18;15.10;95.50
9373;DHT22;10838;52.350;9.790;2023-05-07T12:30:47;15.20;95.60
9373;DHT22;10838;52.350;9.790;2023-05-07T12:33:16;15.20;95.40
9373;DHT22;10838;52.350;9.790;2023-05-07T12:35:43;15.20;95.50
9373;DHT22;10838;52.350;9.790;2023-05-07T12:38:11;15.30;95.50
9373;DHT22;10838;52.350;9.790;2023-05-07T12:40:39;15.30;95.50
9373;DHT22;10838;52.350;9.790;2023-05-07T12:43:07;15.30;95.50
9373;DHT22;10838;52.350;9.790;2023-05-07T12:45:37;15.40;95.50
9373;DHT22;10838;52.350;9.790;2023-05-07T12:48:05;15.40;95.50
9373;DHT22;10838;52.350;9.790;2023-05-07T12:50:32;15.50;95.40
9373;DHT22;10838;52.350;9.790;2023-05-07T12:52:59;15.50;95.40
9373;DHT22;10838;52.350;9.790;2023-05-07T12:55:26;15.50;95.30
9373;DHT22;10838;52.350;9.790;2023-05-07T12:57:53;15.50;95.30
9373;DHT22;10838;52.350;9.790;2023-05-07T13:00:34;15.50;95.30
9373;DHT22;10838;52.350;9.790;2023-05-07T13:03:00;15.50;95.30
9373;DHT22;10838;52.350;9.790;2023-05-07T13:05:27;15.50;95.30
9373;DHT22;10838;52.350;9.790;2023-05-07T13:07:54;15.50;95.20
9373;DHT22;10838;52.350;9.790;2023-05-07T13:10:22;15.50;95.20
9373;DHT22;10838;52.350;9.790;2023-05-07T13:12:48;15.50;95.30
9373;DHT22;10838;52.350;9.790;2023-05-07T13:15:15;15.50;95.30
9373;DHT22;10838;52.350;9.790;2023-05-07T13:17:43;15.60;95.40
9373;DHT22;10838;52.350;9.790;2023-05-07T13:20:11;15.60;95.40
9373;DHT22;10838;52.350;9.790;2023-05-07T13:22:39;15.70;95.30
9373;DHT22;10838;52.350;9.790;2023-05-07T13:25:07;15.70;95.30
9373;DHT22;10838;52.350;9.790;2023-05-07T13:27:33;15.70;95.20
9373;DHT22;10838;52.350;9.790;2023-05-07T13:30:02;15.70;95.20
9373;DHT22;10838;52.350;9.790;2023-05-07T13:32:30;15.70;95.20
9373;DHT22;10838;52.350;9.790;2023-05-07T13:34:58;15.70;95.30
9373;DHT22;10838;52.350;9.790;2023-05-07T13:37:24;15.80;95.30
9373;DHT22;10838;52.350;9.790;2023-05-07T13:39:51;15.80;95.30
9373;DHT22;10838;52.350;9.790;2023-05-07T13:42:18;15.80;95.30
9373;DHT22;10838;52.350;9.790;2023-05-07T13:44:44;15.80;95.30
9373;DHT22;10838;52.350;9.790;2023-05-07T13:47:11;15.80;95.20
9373;DHT22;10838;52.350;9.790;2023-05-07T13:49:37;15.80;95.30
9373;DHT22;10838;52.350;9.790;2023-05-07T13:52:05;15.80;95.30
9373;DHT22;10838;52.350;9.790;2023-05-07T13:54:32;15.90;95.30
9373;DHT22;10838;52.350;9.790;2023-05-07T13:56:59;15.90;95.20
9373;DHT22;10838;52.350;9.790;2023-05-07T13:59:25;15.90;95.20
9373;DHT22;10838;52.350;9.790;2023-05-07T14:01:52;15.90;95.20
9373;DHT22;10838;52.350;9.790;2023-05-07T14:04:20;16.00;95.20
9373;DHT22;10838;52.350;9.790;2023-05-07T14:06:46;16.00;95.20
9373;DHT22;10838;52.350;9.790;2023-05-07T14:09:14;16.00;95.20
9373;DHT22;10838;52.350;9.790;2023-05-07T14:11:41;16.00;95.20
9373;DHT22;10838;52.350;9.790;2023-05-07T14:14:07;16.00;95.20
9373;DHT22;10838;52.350;9.790;2023-05-07T14:16:35;16.00;95.10
9373;DHT22;10838;52.350;9.790;2023-05-07T14:19:02;16.00;95.20
9373;DHT22;10838;52.350;9.790;2023-05-07T14:21:29;16.00;95.10
9373;DHT22;10838;52.350;9.790;2023-05-07T14:23:55;16.00;95.20
9373;DHT22;10838;52.350;9.790;2023-05-07T14:26:25;16.00;95.10
9373;DHT22;10838;52.350;9.790;2023-05-07T14:28:52;16.00;95.20
9373;DHT22;10838;52.350;9.790;2023-05-07T14:31:20;16.00;95.10
9373;DHT22;10838;52.350;9.790;2023-05-07T14:33:47;16.00;95.20
9373;DHT22;10838;52.350;9.790;2023-05-07T14:36:15;16.00;95.20
9373;DHT22;10838;52.350;9.790;2023-05-07T14:38:41;16.00;95.20
9373;DHT22;10838;52.350;9.790;2023-05-07T14:41:08;16.10;95.20
9373;DHT22;10838;52.350;9.790;2023-05-07T14:43:36;16.00;95.20
9373;DHT22;10838;52.350;9.790;2023-05-07T14:46:02;16.10;95.10
9373;DHT22;10838;52.350;9.790;2023-05-07T14:48:29;16.00;95.10
9373;DHT22;10838;52.350;9.790;2023-05-07T14:50:55;16.00;95.20
9373;DHT22;10838;52.350;9.790;2023-05-07T14:53:22;16.00;95.10
9373;DHT22;10838;52.350;9.790;2023-05-07T14:55:49;16.00;95.10
9373;DHT22;10838;52.350;9.790;2023-05-07T14:58:15;16.00;95.20
9373;DHT22;10838;52.350;9.790;2023-05-07T15:00:43;16.00;95.20
9373;DHT22;10838;52.350;9.790;2023-05-07T15:03:10;16.10;95.30
9373;DHT22;10838;52.350;9.790;2023-05-07T15:05:38;16.10;95.20
9373;DHT22;10838;52.350;9.790;2023-05-07T15:08:05;16.00;95.20
9373;DHT22;10838;52.350;9.790;2023-05-07T15:10:35;16.00;95.10
9373;DHT22;10838;52.350;9.790;2023-05-07T15:13:06;16.00;95.10
9373;DHT22;10838;52.350;9.790;2023-05-07T15:15:32;15.90;95.10
9373;DHT22;10838;52.350;9.790;2023-05-07T15:18:00;15.90;95.10
9373;DHT22;10838;52.350;9.790;2023-05-07T15:20:27;15.80;95.10
9373;DHT22;10838;52.350;9.790;2023-05-07T15:22:54;15.80;95.20
9373;DHT22;10838;52.350;9.790;2023-05-07T15:25:21;15.80;95.20
9373;DHT22;10838;52.350;9.790;2023-05-07T15:27:47;15.80;95.10
9373;DHT22;10838;52.350;9.790;2023-05-07T15:30:14;15.80;95.10
9373;DHT22;10838;52.350;9.790;2023-05-07T15:32:41;15.80;95.10
9373;DHT22;10838;52.350;9.790;2023-05-07T15:35:10;15.80;95.10
9373;DHT22;10838;52.350;9.790;2023-05-07T15:37:36;15.80;95.10
9373;DHT22;10838;52.350;9.790;2023-05-07T15:40:04;15.80;95.10
9373;DHT22;10838;52.350;9.790;2023-05-07T15:42:32;15.80;95.10
9373;DHT22;10838;52.350;9.790;2023-05-07T15:44:59;15.80;95.10
9373;DHT22;10838;52.350;9.790;2023-05-07T15:47:26;15.80;95.10
9373;DHT22;10838;52.350;9.790;2023-05-07T15:49:53;15.80;95.10
9373;DHT22;10838;52.350;9.790;2023-05-07T15:52:21;15.80;95.20